sensor_id;sensor_type;location;lat;lon;timestamp;temperature;humidity
9209;DHT22;4639;48.862;9.188;2023-04-15T00:00:23;8.10;99.90
9209;DHT22;4639;48.862;9.188;2023-04-15T00:02:50;8.10;99.90
9209;DHT22;4639;48.862;9.188;2023-04-15T00:05:15;8.10;99.90
9209;DHT22;4639;48.862;9.188;2023-04-15T00:07:41;8.10;99.90
9209;DHT22;4639;48.862;9.188;2023-04-15T00:10:07;8.00;99.90
9209;DHT22;4639;48.862;9.188;2023-04-15T00:12:33;8.00;99.90
9209;DHT22;4639;48.862;9.188;2023-04-15T00:14:59;7.90;99.90
9209;DHT22;4639;48.862;9.188;2023-04-15T00:17:24;7.80;99.90
9209;DHT22;4639;48.862;9.188;2023-04-15T00:19:50;7.70;99.90
9209;DHT22;4639;48.862;9.188;2023-04-15T00:22:15;7.70;99.90
9209;DHT22;4639;48.862;9.188;2023-04-15T00:24:42;7.70;99.90
9209;DHT22;4639;48.862;9.188;2023-04-15T00:27:08;7.70;99.90
9209;DHT22;4639;48.862;9.188;2023-04-15T00:29:33;7.80;99.90
9209;DHT22;4639;48.862;9.188;2023-04-15T00:31:59;7.80;99.90
9209;DHT22;4639;48.862;9.188;2023-04-15T00:34:26;7.80;99.90
9209;DHT22;4639;48.862;9.188;2023-04-15T00:36:52;7.80;99.90
9209;DHT22;4639;48.862;9.188;2023-04-15T00:39:18;7.80;99.90
9209;DHT22;4639;48.862;9.188;2023-04-15T00:41:44;7.80;99.90
9209;DHT22;4639;48.862;9.188;2023-04-15T00:44:10;7.80;99.90
9209;DHT22;4639;48.862;9.188;2023-04-15T00:46:36;7.70;99.90
9209;DHT22;4639;48.862;9.188;2023-04-15T00:49:06;7.70;99.90
9209;DHT22;4639;48.862;9.188;2023-04-15T00:51:33;7.70;99.90
9209;DHT22;4639;48.862;9.188;2023-04-15T00:54:04;7.60;99.90
9209;DHT22;4639;48.862;9.188;2023-04-15T00:56:32;7.60;99.90
9209;DHT22;4639;48.862;9.188;2023-04-15T00:58:59;7.60;99.90
9209;DHT22;4639;48.862;9.188;2023-04-15T01:01:26;7.60;99.90
9209;DHT22;4639;48.862;9.188;2023-04-15T01:03:55;7.60;99.90
9209;DHT22;4639;48.862;9.188;2023-04-15T01:06:22;7.50;99.90
9209;DHT22;4639;48.862;9.188;2023-04-15T01:08:48;7.50;99.90
9209;DHT22;4639;48.862;9.188;2023-04-15T01:11:14;7.50;99.90
9209;DHT22;4639;48.862;9.188;2023-04-15T01:13:40;7.50;99.90
9209;DHT22;4639;48.862;9.188;2023-04-15T01:16:07;7.40;99.90
9209;DHT22;4639;48.862;9.188;2023-04-15T01:18:34;7.20;99.90
9209;DHT22;4639;48.862;9.188;2023-04-15T01:21:00;7.20;99.90
9209;DHT22;4639;48.862;9.188;2023-04-15T01:23:28;7.10;99.90
9209;DHT22;4639;48.862;9.188;2023-04-15T01:25:55;7.10;99.90
9209;DHT22;4639;48.862;9.188;2023-04-15T01:28:21;7.00;99.90
9209;DHT22;4639;48.862;9.188;2023-04-15T01:30:46;6.90;99.90
9209;DHT22;4639;48.862;9.188;2023-04-15T01:33:12;6.80;99.90
9209;DHT22;4639;48.862;9.188;2023-04-15T01:35:38;6.80;99.90
9209;DHT22;4639;48.862;9.188;2023-04-15T01:38:08;6.90;99.90
9209;DHT22;4639;48.862;9.188;2023-04-15T01:40:35;7.10;99.90
9209;DHT22;4639;48.862;9.188;2023-04-15T01:43:01;6.90;99.90
9209;DHT22;4639;48.862;9.188;2023-04-15T01:45:27;6.80;99.90
9209;DHT22;4639;48.862;9.188;2023-04-15T01:47:53;6.70;99.90
9209;DHT22;4639;48.862;9.188;2023-04-15T01:50:19;6.70;99.90
9209;DHT22;4639;48.862;9.188;2023-04-15T01:52:45;6.60;99.90
9209;DHT22;4639;48.862;9.188;2023-04-15T01:55:12;6.60;99.90
9209;DHT22;4639;48.862;9.188;2023-04-15T01:57:38;6.60;99.90
9209;DHT22;4639;48.862;9.188;2023-04-15T02:00:04;6.60;99.90
9209;DHT22;4639;48.862;9.188;2023-04-15T02:02:32;6.60;99.90
9209;DHT22;4639;48.862;9.188;2023-04-15T02:04:57;6.60;99.90
9209;DHT22;4639;48.862;9.188;2023-04-15T02:07:23;6.60;99.90
9209;DHT22;4639;48.862;9.188;2023-04-15T02:09:49;6.50;99.90
9209;DHT22;4639;48.862;9.188;2023-04-15T02:12:14;6.50;99.90
9209;DHT22;4639;48.862;9.188;2023-04-15T02:14:40;6.50;99.90
9209;DHT22;4639;48.862;9.188;2023-04-15T02:17:06;6.50;99.90
9209;DHT22;4639;48.862;9.188;2023-04-15T02:19:35;6.50;99.90
9209;DHT22;4639;48.862;9.188;2023-04-15T02:22:01;6.50;99.90
9209;DHT22;4639;48.862;9.188;2023-04-15T02:24:29;6.50;99.90
9209;DHT22;4639;48.862;9.188;2023-04-15T02:26:55;6.40;99.90
9209;DHT22;4639;48.862;9.188;2023-04-15T02:29:20;6.40;99.90
9209;DHT22;4639;48.862;9.188;2023-04-15T02:31:47;6.50;99.90
9209;DHT22;4639;48.862;9.188;2023-04-15T02:34:13;6.60;99.90
9209;DHT22;4639;48.862;9.188;2023-04-15T02:36:39;6.50;99.90
9209;DHT22;4639;48.862;9.188;2023-04-15T02:39:05;6.50;99.90
9209;DHT22;4639;48.862;9.188;2023-04-15T02:41:31;6.50;99.90
9209;DHT22;4639;48.862;9.188;2023-04-15T02:43:57;6.50;99.90
9209;DHT22;4639;48.862;9.188;2023-04-15T02:46:22;6.50;99.90
9209;DHT22;4639;48.862;9.188;2023-04-15T02:48:49;6.70;99.90
9209;DHT22;4639;48.862;9.188;2023-04-15T02:51:16;6.50;99.90
9209;DHT22;4639;48.862;9.188;2023-04-15T02:53:44;6.50;99.90
9209;DHT22;4639;48.862;9.188;2023-04-15T02:56:10;6.50;99.90
9209;DHT22;4639;48.862;9.188;2023-04-15T02:58:36;6.50;99.90
9209;DHT22;4639;48.862;9.188;2023-04-15T03:01:01;6.40;99.90
9209;DHT22;4639;48.862;9.188;2023-04-15T03:03:27;6.40;99.90
9209;DHT22;4639;48.862;9.188;2023-04-15T03:05:53;6.30;99.90
9209;DHT22;4639;48.862;9.188;2023-04-15T03:08:19;6.30;99.90
9209;DHT22;4639;48.862;9.188;2023-04-15T03:10:46;6.30;99.90
9209;DHT22;4639;48.862;9.188;2023-04-15T03:13:12;6.30;99.90
9209;DHT22;4639;48.862;9.188;2023-04-15T03:15:37;6.10;99.90
9209;DHT22;4639;48.862;9.188;2023-04-15T03:18:03;6.10;99.90
9209;DHT22;4639;48.862;9.188;2023-04-15T03:20:28;6.00;99.90
9209;DHT22;4639;48.862;9.188;2023-04-15T03:22:54;6.00;99.90
9209;DHT22;4639;48.862;9.188;2023-04-15T03:25:19;6.10;99.90
9209;DHT22;4639;48.862;9.188;2023-04-15T03:27:45;6.00;99.90
9209;DHT22;4639;48.862;9.188;2023-04-15T03:30:11;6.10;99.90
9209;DHT22;4639;48.862;9.188;2023-04-15T03:32:37;6.10;99.90
9209;DHT22;4639;48.862;9.188;2023-04-15T03:35:03;6.10;99.90
9209;DHT22;4639;48.862;9.188;2023-04-15T03:37:29;6.10;99.90
9209;DHT22;4639;48.862;9.188;2023-04-15T03:39:54;6.10;99.90
9209;DHT22;4639;48.862;9.188;2023-04-15T03:42:20;6.10;99.90
9209;DHT22;4639;48.862;9.188;2023-04-15T03:44:46;6.10;99.90
9209;DHT22;4639;48.862;9.188;2023-04-15T03:47:12;6.00;99.90
9209;DHT22;4639;48.862;9.188;2023-04-15T03:49:37;5.90;99.90
9209;DHT22;4639;48.862;9.188;2023-04-15T03:52:09;5.90;99.90
9209;DHT22;4639;48.862;9.188;2023-04-15T03:54:34;6.00;99.90
9209;DHT22;4639;48.862;9.188;2023-04-15T03:57:00;5.90;99.90
9209;DHT22;4639;48.862;9.188;2023-04-15T03:59:26;6.00;99.90
9209;DHT22;4639;48.862;9.188;2023-04-15T04:01:51;5.80;99.90
9209;DHT22;4639;48.862;9.188;2023-04-15T04:04:17;5.80;99.90
9209;DHT22;4639;48.862;9.188;2023-04-15T04:06:43;5.80;99.90
9209;DHT22;4639;48.862;9.188;2023-04-15T04:09:08;5.80;99.90
9209;DHT22;4639;48.862;9.188;2023-04-15T04:11:34;5.90;99.90
9209;DHT22;4639;48.862;9.188;2023-04-15T04:14:00;5.90;99.90
9209;DHT22;4639;48.862;9.188;2023-04-15T04:16:25;5.80;99.90
9209;DHT22;4639;48.862;9.188;2023-04-15T04:18:51;5.70;99.90
9209;DHT22;4639;48.862;9.188;2023-04-15T04:21:16;5.60;99.90
9209;DHT22;4639;48.862;9.188;2023-04-15T04:23:42;5.50;99.90
9209;DHT22;4639;48.862;9.188;2023-04-15T04:26:08;5.60;99.90
9209;DHT22;4639;48.862;9.188;2023-04-15T04:28:33;5.60;99.90
9209;DHT22;4639;48.862;9.188;2023-04-15T04:31:00;5.60;99.90
9209;DHT22;4639;48.862;9.188;2023-04-15T04:33:26;5.70;99.90
9209;DHT22;4639;48.862;9.188;2023-04-15T04:35:52;5.60;99.90
9209;DHT22;4639;48.862;9.188;2023-04-15T04:38:17;5.70;99.90
9209;DHT22;4639;48.862;9.188;2023-04-15T04:40:43;5.60;99.90
9209;DHT22;4639;48.862;9.188;2023-04-15T04:43:08;5.60;99.90
9209;DHT22;4639;48.862;9.188;2023-04-15T04:45:34;5.60;99.90
9209;DHT22;4639;48.862;9.188;2023-04-15T04:48:00;5.60;99.90
9209;DHT22;4639;48.862;9.188;2023-04-15T04:50:26;5.60;99.90
9209;DHT22;4639;48.862;9.188;2023-04-15T04:52:51;5.60;99.90
9209;DHT22;4639;48.862;9.188;2023-04-15T04:55:17;5.50;99.90
9209;DHT22;4639;48.862;9.188;2023-04-15T04:57:43;5.50;99.90
9209;DHT22;4639;48.862;9.188;2023-04-15T05:00:09;5.50;99.90
9209;DHT22;4639;48.862;9.188;2023-04-15T05:02:35;5.50;99.90
9209;DHT22;4639;48.862;9.188;2023-04-15T05:05:00;5.30;99.90
9209;DHT22;4639;48.862;9.188;2023-04-15T05:07:26;5.30;99.90
9209;DHT22;4639;48.862;9.188;2023-04-15T05:09:52;5.20;99.90
9209;DHT22;4639;48.862;9.188;2023-04-15T05:12:17;5.20;99.90
9209;DHT22;4639;48.862;9.188;2023-04-15T05:14:43;5.20;99.90
9209;DHT22;4639;48.862;9.188;2023-04-15T05:17:09;5.20;99.90
9209;DHT22;4639;48.862;9.188;2023-04-15T05:19:35;5.20;99.90
9209;DHT22;4639;48.862;9.188;2023-04-15T05:22:01;5.10;99.90
9209;DHT22;4639;48.862;9.188;2023-04-15T05:24:26;5.10;99.90
9209;DHT22;4639;48.862;9.188;2023-04-15T05:26:52;5.00;99.90
9209;DHT22;4639;48.862;9.188;2023-04-15T05:29:17;5.00;99.90
9209;DHT22;4639;48.862;9.188;2023-04-15T05:31:43;5.00;99.90
9209;DHT22;4639;48.862;9.188;2023-04-15T05:34:09;5.00;99.90
9209;DHT22;4639;48.862;9.188;2023-04-15T05:36:36;5.00;99.90
9209;DHT22;4639;48.862;9.188;2023-04-15T05:39:01;5.00;99.90
9209;DHT22;4639;48.862;9.188;2023-04-15T05:41:27;5.00;99.90
9209;DHT22;4639;48.862;9.188;2023-04-15T05:43:52;5.10;99.90
9209;DHT22;4639;48.862;9.188;2023-04-15T05:46:18;5.20;99.90
9209;DHT22;4639;48.862;9.188;2023-04-15T05:48:44;5.20;99.90
9209;DHT22;4639;48.862;9.188;2023-04-15T05:51:10;5.20;99.90
9209;DHT22;4639;48.862;9.188;2023-04-15T05:53:35;5.30;99.90
9209;DHT22;4639;48.862;9.188;2023-04-15T05:56:01;5.40;99.90
9209;DHT22;4639;48.862;9.188;2023-04-15T05:58:26;5.50;99.90
9209;DHT22;4639;48.862;9.188;2023-04-15T06:00:52;5.60;99.90
9209;DHT22;4639;48.862;9.188;2023-04-15T06:03:18;5.60;99.90
9209;DHT22;4639;48.862;9.188;2023-04-15T06:05:43;5.70;99.90
9209;DHT22;4639;48.862;9.188;2023-04-15T06:08:09;5.70;99.90
9209;DHT22;4639;48.862;9.188;2023-04-15T06:10:35;5.80;99.90
9209;DHT22;4639;48.862;9.188;2023-04-15T06:13:04;5.90;99.90
9209;DHT22;4639;48.862;9.188;2023-04-15T06:15:30;6.00;99.90
9209;DHT22;4639;48.862;9.188;2023-04-15T06:17:56;5.90;99.90
9209;DHT22;4639;48.862;9.188;2023-04-15T06:20:21;5.90;99.90
9209;DHT22;4639;48.862;9.188;2023-04-15T06:22:47;6.00;99.90
9209;DHT22;4639;48.862;9.188;2023-04-15T06:25:12;6.00;99.90
9209;DHT22;4639;48.862;9.188;2023-04-15T06:27:38;6.10;99.90
9209;DHT22;4639;48.862;9.188;2023-04-15T06:30:04;6.30;99.90
9209;DHT22;4639;48.862;9.188;2023-04-15T06:32:34;6.40;99.90
9209;DHT22;4639;48.862;9.188;2023-04-15T06:35:00;6.50;99.90
9209;DHT22;4639;48.862;9.188;2023-04-15T06:37:25;6.60;99.90
9209;DHT22;4639;48.862;9.188;2023-04-15T06:39:51;6.80;99.90
9209;DHT22;4639;48.862;9.188;2023-04-15T06:42:17;7.00;99.90
9209;DHT22;4639;48.862;9.188;2023-04-15T06:44:42;7.10;99.90
9209;DHT22;4639;48.862;9.188;2023-04-15T06:47:08;7.20;99.90
9209;DHT22;4639;48.862;9.188;2023-04-15T06:49:34;7.10;99.90
9209;DHT22;4639;48.862;9.188;2023-04-15T06:52:00;7.10;99.90
9209;DHT22;4639;48.862;9.188;2023-04-15T06:54:26;7.30;99.90
9209;DHT22;4639;48.862;9.188;2023-04-15T06:56:51;7.60;99.90
9209;DHT22;4639;48.862;9.188;2023-04-15T06:59:20;7.70;99.90
9209;DHT22;4639;48.862;9.188;2023-04-15T07:01:45;7.80;99.90
9209;DHT22;4639;48.862;9.188;2023-04-15T07:04:11;8.00;99.90
9209;DHT22;4639;48.862;9.188;2023-04-15T07:06:37;8.10;99.90
9209;DHT22;4639;48.862;9.188;2023-04-15T07:09:03;8.40;99.90
9209;DHT22;4639;48.862;9.188;2023-04-15T07:11:29;8.50;99.90
9209;DHT22;4639;48.862;9.188;2023-04-15T07:13:56;8.60;99.90
9209;DHT22;4639;48.862;9.188;2023-04-15T07:16:22;8.60;99.90
9209;DHT22;4639;48.862;9.188;2023-04-15T07:18:47;8.70;99.90
9209;DHT22;4639;48.862;9.188;2023-04-15T07:21:13;8.60;99.90
9209;DHT22;4639;48.862;9.188;2023-04-15T07:23:38;8.50;99.90
9209;DHT22;4639;48.862;9.188;2023-04-15T07:26:04;8.60;99.90
9209;DHT22;4639;48.862;9.188;2023-04-15T07:28:30;8.60;99.90
9209;DHT22;4639;48.862;9.188;2023-04-15T07:30:56;8.70;99.90
9209;DHT22;4639;48.862;9.188;2023-04-15T07:33:22;8.80;99.90
9209;DHT22;4639;48.862;9.188;2023-04-15T07:35:47;8.90;99.90
9209;DHT22;4639;48.862;9.188;2023-04-15T07:38:13;9.00;99.90
9209;DHT22;4639;48.862;9.188;2023-04-15T07:40:39;9.20;99.90
9209;DHT22;4639;48.862;9.188;2023-04-15T07:43:05;9.40;99.90
9209;DHT22;4639;48.862;9.188;2023-04-15T07:45:31;9.70;99.90
9209;DHT22;4639;48.862;9.188;2023-04-15T07:47:56;9.90;99.90
9209;DHT22;4639;48.862;9.188;2023-04-15T07:50:22;10.20;99.90
9209;DHT22;4639;48.862;9.188;2023-04-15T07:52:49;10.40;99.90
9209;DHT22;4639;48.862;9.188;2023-04-15T07:55:16;10.60;99.90
9209;DHT22;4639;48.862;9.188;2023-04-15T07:57:44;10.90;99.90
9209;DHT22;4639;48.862;9.188;2023-04-15T08:00:10;11.10;99.90
9209;DHT22;4639;48.862;9.188;2023-04-15T08:02:36;11.40;99.90
9209;DHT22;4639;48.862;9.188;2023-04-15T08:05:01;11.60;99.90
9209;DHT22;4639;48.862;9.188;2023-04-15T08:07:28;11.80;99.90
9209;DHT22;4639;48.862;9.188;2023-04-15T08:09:54;12.20;99.90
9209;DHT22;4639;48.862;9.188;2023-04-15T08:12:20;12.50;99.90
9209;DHT22;4639;48.862;9.188;2023-04-15T08:14:46;12.90;99.90
9209;DHT22;4639;48.862;9.188;2023-04-15T08:17:11;13.30;99.90
9209;DHT22;4639;48.862;9.188;2023-04-15T08:19:37;13.60;99.90
9209;DHT22;4639;48.862;9.188;2023-04-15T08:22:03;13.90;99.90
9209;DHT22;4639;48.862;9.188;2023-04-15T08:24:30;13.90;99.90
9209;DHT22;4639;48.862;9.188;2023-04-15T08:26:55;13.90;99.90
9209;DHT22;4639;48.862;9.188;2023-04-15T08:29:22;14.00;99.90
9209;DHT22;4639;48.862;9.188;2023-04-15T08:31:47;14.20;99.90
9209;DHT22;4639;48.862;9.188;2023-04-15T08:34:13;14.40;99.90
9209;DHT22;4639;48.862;9.188;2023-04-15T08:36:40;14.40;99.90
9209;DHT22;4639;48.862;9.188;2023-04-15T08:39:06;14.40;99.90
9209;DHT22;4639;48.862;9.188;2023-04-15T08:41:44;14.20;99.90
9209;DHT22;4639;48.862;9.188;2023-04-15T08:44:14;14.50;99.90
9209;DHT22;4639;48.862;9.188;2023-04-15T08:46:40;14.80;99.90
9209;DHT22;4639;48.862;9.188;2023-04-15T08:49:10;14.80;99.90
9209;DHT22;4639;48.862;9.188;2023-04-15T08:51:37;14.70;99.90
9209;DHT22;4639;48.862;9.188;2023-04-15T08:54:04;14.70;99.90
9209;DHT22;4639;48.862;9.188;2023-04-15T08:56:31;15.00;99.90
9209;DHT22;4639;48.862;9.188;2023-04-15T08:58:58;15.50;99.90
9209;DHT22;4639;48.862;9.188;2023-04-15T09:01:25;15.90;99.90
9209;DHT22;4639;48.862;9.188;2023-04-15T09:03:51;16.30;99.90
9209;DHT22;4639;48.862;9.188;2023-04-15T09:06:20;16.60;99.90
9209;DHT22;4639;48.862;9.188;2023-04-15T09:08:46;16.90;99.90
9209;DHT22;4639;48.862;9.188;2023-04-15T09:11:12;17.20;99.90
9209;DHT22;4639;48.862;9.188;2023-04-15T09:13:38;17.10;99.90
9209;DHT22;4639;48.862;9.188;2023-04-15T09:16:06;17.00;99.90
9209;DHT22;4639;48.862;9.188;2023-04-15T09:18:34;17.20;99.90
9209;DHT22;4639;48.862;9.188;2023-04-15T09:21:07;16.90;99.90
9209;DHT22;4639;48.862;9.188;2023-04-15T09:23:34;16.60;99.90
9209;DHT22;4639;48.862;9.188;2023-04-15T09:26:01;16.40;99.90
9209;DHT22;4639;48.862;9.188;2023-04-15T09:28:27;16.40;99.90
9209;DHT22;4639;48.862;9.188;2023-04-15T09:30:59;16.50;99.90
9209;DHT22;4639;48.862;9.188;2023-04-15T09:33:26;16.70;99.90
9209;DHT22;4639;48.862;9.188;2023-04-15T09:36:02;16.70;99.90
9209;DHT22;4639;48.862;9.188;2023-04-15T09:38:29;16.50;99.90
9209;DHT22;4639;48.862;9.188;2023-04-15T09:40:55;16.20;99.90
9209;DHT22;4639;48.862;9.188;2023-04-15T09:43:21;15.90;99.90
9209;DHT22;4639;48.862;9.188;2023-04-15T09:45:52;15.60;99.90
9209;DHT22;4639;48.862;9.188;2023-04-15T09:48:23;15.50;99.90
9209;DHT22;4639;48.862;9.188;2023-04-15T09:50:51;15.60;99.90
9209;DHT22;4639;48.862;9.188;2023-04-15T09:53:23;15.70;99.90
9209;DHT22;4639;48.862;9.188;2023-04-15T09:58:23;15.70;99.90
9209;DHT22;4639;48.862;9.188;2023-04-15T10:00:50;15.90;99.90
9209;DHT22;4639;48.862;9.188;2023-04-15T10:03:26;16.20;99.90
9209;DHT22;4639;48.862;9.188;2023-04-15T10:05:54;16.30;99.90
9209;DHT22;4639;48.862;9.188;2023-04-15T10:08:22;16.20;99.90
9209;DHT22;4639;48.862;9.188;2023-04-15T10:10:49;16.10;99.90
9209;DHT22;4639;48.862;9.188;2023-04-15T10:13:18;16.00;99.90
9209;DHT22;4639;48.862;9.188;2023-04-15T10:16:04;15.90;99.90
9209;DHT22;4639;48.862;9.188;2023-04-15T10:18:33;16.10;99.90
9209;DHT22;4639;48.862;9.188;2023-04-15T10:21:00;16.30;99.90
9209;DHT22;4639;48.862;9.188;2023-04-15T10:23:26;16.40;99.90
9209;DHT22;4639;48.862;9.188;2023-04-15T10:25:52;16.60;99.90
9209;DHT22;4639;48.862;9.188;2023-04-15T10:28:20;16.60;99.90
9209;DHT22;4639;48.862;9.188;2023-04-15T10:30:47;17.00;99.90
9209;DHT22;4639;48.862;9.188;2023-04-15T10:33:16;17.30;99.90
9209;DHT22;4639;48.862;9.188;2023-04-15T10:35:43;17.60;99.90
9209;DHT22;4639;48.862;9.188;2023-04-15T10:38:37;17.60;99.90
9209;DHT22;4639;48.862;9.188;2023-04-15T10:41:20;16.90;99.90
9209;DHT22;4639;48.862;9.188;2023-04-15T10:44:02;16.60;99.90
9209;DHT22;4639;48.862;9.188;2023-04-15T10:46:41;16.60;99.90
9209;DHT22;4639;48.862;9.188;2023-04-15T10:49:09;16.90;99.90
9209;DHT22;4639;48.862;9.188;2023-04-15T10:51:42;17.00;99.90
9209;DHT22;4639;48.862;9.188;2023-04-15T10:57:07;17.50;99.90
9209;DHT22;4639;48.862;9.188;2023-04-15T10:59:37;17.40;99.90
9209;DHT22;4639;48.862;9.188;2023-04-15T11:05:15;18.00;99.90
9209;DHT22;4639;48.862;9.188;2023-04-15T11:07:55;18.70;99.90
9209;DHT22;4639;48.862;9.188;2023-04-15T11:12:58;18.80;99.90
9209;DHT22;4639;48.862;9.188;2023-04-15T11:17:51;18.20;99.90
9209;DHT22;4639;48.862;9.188;2023-04-15T11:20:17;18.10;99.90
9209;DHT22;4639;48.862;9.188;2023-04-15T11:22:47;17.90;99.90
9209;DHT22;4639;48.862;9.188;2023-04-15T11:25:29;17.80;99.90
9209;DHT22;4639;48.862;9.188;2023-04-15T11:27:55;18.00;99.90
9209;DHT22;4639;48.862;9.188;2023-04-15T11:30:24;18.10;99.90
9209;DHT22;4639;48.862;9.188;2023-04-15T11:32:58;17.80;99.90
9209;DHT22;4639;48.862;9.188;2023-04-15T11:35:24;17.50;99.90
9209;DHT22;4639;48.862;9.188;2023-04-15T11:37:50;16.90;99.90
9209;DHT22;4639;48.862;9.188;2023-04-15T11:40:16;16.60;99.90
9209;DHT22;4639;48.862;9.188;2023-04-15T11:42:46;16.30;99.90
9209;DHT22;4639;48.862;9.188;2023-04-15T11:45:27;15.90;99.90
9209;DHT22;4639;48.862;9.188;2023-04-15T11:47:53;15.90;99.90
9209;DHT22;4639;48.862;9.188;2023-04-15T11:50:20;16.10;99.90
9209;DHT22;4639;48.862;9.188;2023-04-15T11:53:00;16.10;99.90
9209;DHT22;4639;48.862;9.188;2023-04-15T11:55:27;16.10;99.90
9209;DHT22;4639;48.862;9.188;2023-04-15T11:58:18;16.30;99.90
9209;DHT22;4639;48.862;9.188;2023-04-15T12:00:54;16.10;99.90
9209;DHT22;4639;48.862;9.188;2023-04-15T12:03:28;16.10;99.90
9209;DHT22;4639;48.862;9.188;2023-04-15T12:06:06;16.10;99.90
9209;DHT22;4639;48.862;9.188;2023-04-15T12:11:38;15.90;99.90
9209;DHT22;4639;48.862;9.188;2023-04-15T12:14:10;15.90;99.90
9209;DHT22;4639;48.862;9.188;2023-04-15T12:16:39;15.90;99.90
9209;DHT22;4639;48.862;9.188;2023-04-15T12:19:48;15.30;99.90
9209;DHT22;4639;48.862;9.188;2023-04-15T12:22:11;14.90;99.90
9209;DHT22;4639;48.862;9.188;2023-04-15T12:24:37;14.10;99.90
9209;DHT22;4639;48.862;9.188;2023-04-15T12:27:11;13.20;99.90
9209;DHT22;4639;48.862;9.188;2023-04-15T12:29:38;12.50;99.90
9209;DHT22;4639;48.862;9.188;2023-04-15T12:32:05;12.00;99.90
9209;DHT22;4639;48.862;9.188;2023-04-15T12:34:34;11.80;99.90
9209;DHT22;4639;48.862;9.188;2023-04-15T12:37:02;11.50;99.90
9209;DHT22;4639;48.862;9.188;2023-04-15T12:39:36;11.50;99.90
9209;DHT22;4639;48.862;9.188;2023-04-15T12:42:03;11.60;99.90
9209;DHT22;4639;48.862;9.188;2023-04-15T12:44:29;11.80;99.90
9209;DHT22;4639;48.862;9.188;2023-04-15T12:46:55;11.80;99.90
9209;DHT22;4639;48.862;9.188;2023-04-15T12:49:21;12.00;99.90
9209;DHT22;4639;48.862;9.188;2023-04-15T12:51:53;12.20;99.90
9209;DHT22;4639;48.862;9.188;2023-04-15T12:54:20;12.40;99.90
9209;DHT22;4639;48.862;9.188;2023-04-15T12:56:47;12.60;99.90
9209;DHT22;4639;48.862;9.188;2023-04-15T12:59:13;12.60;99.90
9209;DHT22;4639;48.862;9.188;2023-04-15T13:01:39;12.60;99.90
9209;DHT22;4639;48.862;9.188;2023-04-15T13:04:06;12.60;99.90
9209;DHT22;4639;48.862;9.188;2023-04-15T13:06:31;12.50;99.90
9209;DHT22;4639;48.862;9.188;2023-04-15T13:09:01;12.60;99.90
9209;DHT22;4639;48.862;9.188;2023-04-15T13:11:28;12.70;99.90
9209;DHT22;4639;48.862;9.188;2023-04-15T13:14:01;12.80;99.90
9209;DHT22;4639;48.862;9.188;2023-04-15T13:16:27;12.90;99.90
9209;DHT22;4639;48.862;9.188;2023-04-15T13:18:52;13.10;99.90
9209;DHT22;4639;48.862;9.188;2023-04-15T13:21:19;13.20;99.90
9209;DHT22;4639;48.862;9.188;2023-04-15T13:23:44;13.30;99.90
9209;DHT22;4639;48.862;9.188;2023-04-15T13:26:10;13.40;99.90
9209;DHT22;4639;48.862;9.188;2023-04-15T13:28:36;13.40;99.90
9209;DHT22;4639;48.862;9.188;2023-04-15T13:31:01;13.50;99.90
9209;DHT22;4639;48.862;9.188;2023-04-15T13:33:27;13.50;99.90
9209;DHT22;4639;48.862;9.188;2023-04-15T13:35:53;13.40;99.90
9209;DHT22;4639;48.862;9.188;2023-04-15T13:38:19;13.40;99.90
9209;DHT22;4639;48.862;9.188;2023-04-15T13:40:44;13.60;99.90
9209;DHT22;4639;48.862;9.188;2023-04-15T13:43:10;13.60;99.90
9209;DHT22;4639;48.862;9.188;2023-04-15T13:45:36;13.60;99.90
9209;DHT22;4639;48.862;9.188;2023-04-15T13:48:02;13.50;99.90
9209;DHT22;4639;48.862;9.188;2023-04-15T13:50:28;13.40;99.90
9209;DHT22;4639;48.862;9.188;2023-04-15T13:52:53;13.30;99.90
9209;DHT22;4639;48.862;9.188;2023-04-15T13:55:19;13.30;99.90
9209;DHT22;4639;48.862;9.188;2023-04-15T13:57:44;13.30;99.90
9209;DHT22;4639;48.862;9.188;2023-04-15T14:00:11;13.10;99.90
9209;DHT22;4639;48.862;9.188;2023-04-15T14:02:36;13.10;99.90
9209;DHT22;4639;48.862;9.188;2023-04-15T14:05:02;13.10;99.90
9209;DHT22;4639;48.862;9.188;2023-04-15T14:07:28;13.00;99.90
9209;DHT22;4639;48.862;9.188;2023-04-15T14:09:55;13.10;99.90
9209;DHT22;4639;48.862;9.188;2023-04-15T14:12:21;13.00;99.90
9209;DHT22;4639;48.862;9.188;2023-04-15T14:14:46;13.00;99.90
9209;DHT22;4639;48.862;9.188;2023-04-15T14:17:12;13.00;99.90
9209;DHT22;4639;48.862;9.188;2023-04-15T14:19:37;13.00;99.90
9209;DHT22;4639;48.862;9.188;2023-04-15T14:22:06;13.00;99.90
9209;DHT22;4639;48.862;9.188;2023-04-15T14:24:32;13.10;99.90
9209;DHT22;4639;48.862;9.188;2023-04-15T14:26:58;13.10;99.90
9209;DHT22;4639;48.862;9.188;2023-04-15T14:29:23;13.00;99.90
9209;DHT22;4639;48.862;9.188;2023-04-15T14:31:49;13.00;99.90
9209;DHT22;4639;48.862;9.188;2023-04-15T14:34:15;13.00;99.90
9209;DHT22;4639;48.862;9.188;2023-04-15T14:36:41;12.90;99.90
9209;DHT22;4639;48.862;9.188;2023-04-15T14:39:07;12.60;99.90
9209;DHT22;4639;48.862;9.188;2023-04-15T14:41:33;12.50;99.90
9209;DHT22;4639;48.862;9.188;2023-04-15T14:43:59;12.40;99.90
9209;DHT22;4639;48.862;9.188;2023-04-15T14:46:25;12.30;99.90
9209;DHT22;4639;48.862;9.188;2023-04-15T14:48:51;12.30;99.90
9209;DHT22;4639;48.862;9.188;2023-04-15T14:51:17;12.20;99.90
9209;DHT22;4639;48.862;9.188;2023-04-15T14:53:43;12.10;99.90
9209;DHT22;4639;48.862;9.188;2023-04-15T14:56:09;12.00;99.90
9209;DHT22;4639;48.862;9.188;2023-04-15T14:58:34;12.00;99.90
9209;DHT22;4639;48.862;9.188;2023-04-15T15:01:00;12.00;99.90
9209;DHT22;4639;48.862;9.188;2023-04-15T15:03:28;12.10;99.90
9209;DHT22;4639;48.862;9.188;2023-04-15T15:05:53;12.00;99.90
9209;DHT22;4639;48.862;9.188;2023-04-15T15:08:19;11.80;99.90
9209;DHT22;4639;48.862;9.188;2023-04-15T15:10:44;11.80;99.90
9209;DHT22;4639;48.862;9.188;2023-04-15T15:13:10;11.80;99.90
9209;DHT22;4639;48.862;9.188;2023-04-15T15:15:36;11.80;99.90
9209;DHT22;4639;48.862;9.188;2023-04-15T15:18:02;11.80;99.90
9209;DHT22;4639;48.862;9.188;2023-04-15T15:20:29;11.70;99.90
9209;DHT22;4639;48.862;9.188;2023-04-15T15:22:55;11.70;99.90
9209;DHT22;4639;48.862;9.188;2023-04-15T15:25:20;11.70;99.90
9209;DHT22;4639;48.862;9.188;2023-04-15T15:27:46;11.60;99.90
9209;DHT22;4639;48.862;9.188;2023-04-15T15:30:12;11.70;99.90
9209;DHT22;4639;48.862;9.188;2023-04-15T15:32:41;11.70;99.90
9209;DHT22;4639;48.862;9.188;2023-04-15T15:35:08;11.80;99.90
9209;DHT22;4639;48.862;9.188;2023-04-15T15:37:34;11.70;99.90
9209;DHT22;4639;48.862;9.188;2023-04-15T15:40:02;11.70;99.90
9209;DHT22;4639;48.862;9.188;2023-04-15T15:42:30;11.70;99.90
9209;DHT22;4639;48.862;9.188;2023-04-15T15:44:56;11.70;99.90
9209;DHT22;4639;48.862;9.188;2023-04-15T15:47:22;11.70;99.90
9209;DHT22;4639;48.862;9.188;2023-04-15T15:49:48;11.60;99.90
9209;DHT22;4639;48.862;9.188;2023-04-15T15:52:13;11.70;99.90
9209;DHT22;4639;48.862;9.188;2023-04-15T15:54:39;11.70;99.90
9209;DHT22;4639;48.862;9.188;2023-04-15T15:57:05;11.70;99.90
9209;DHT22;4639;48.862;9.188;2023-04-15T15:59:31;11.60;99.90
9209;DHT22;4639;48.862;9.188;2023-04-15T16:01:57;11.60;99.90
9209;DHT22;4639;48.862;9.188;2023-04-15T16:04:23;11.50;99.90
9209;DHT22;4639;48.862;9.188;2023-04-15T16:06:49;11.50;99.90
9209;DHT22;4639;48.862;9.188;2023-04-15T16:09:16;11.60;99.90
9209;DHT22;4639;48.862;9.188;2023-04-15T16:11:42;11.50;99.90
9209;DHT22;4639;48.862;9.188;2023-04-15T16:14:08;11.50;99.90
9209;DHT22;4639;48.862;9.188;2023-04-15T16:16:34;11.40;99.90
9209;DHT22;4639;48.862;9.188;2023-04-15T16:18:59;11.40;99.90
9209;DHT22;4639;48.862;9.188;2023-04-15T16:21:25;11.50;99.90
9209;DHT22;4639;48.862;9.188;2023-04-15T16:23:51;11.60;99.90